Volodymyr-Volyns'Kyi, Ukraine
Current Conditions -  °F | °C
As of 1:00 PM on Thursday 29 Jan 2015 (Local Time) from UKLL Reporting Station
Broken Clouds Broken Clouds  
Wind Chill: 26°   Ceiling: 20000
Heat Index: 36°   Visibility: 6mi
Dew Point: 23°   Wind: 16mph
Humidity: 60%   Direction: 200°SSW
Pressure: 29.56"   Gusts: NA
Location:  50.83°N, 24.32°E
Report Text: UKLL 291000Z 20007MPS 9999 FEW033 BKN200 02/M05 Q1001 13CLRD80 NOSIG
Loading
Personal Weather Stations






























Interactive Weather Map New forecast layout! Learn more

10-Day Weather Forecast

Advertisements
Track Severe Weather on mobile